Time;durP1;ratioP1;P1;durP2;ratioP2;P2;SDS_P1;SDS_P2;PMS_P1;PMS_P2;Temp;Humidity;BMP_temperature;BMP_pressure;BME280_temperature;BME280_humidity;BME280_pressure;Samples;Min_cycle;Max_cycle;Signal;HPM_P1;HPM_P2
2023/07/12 00:01:02;;;;;;;;;;;;;;;25.96;45.34;100825.25;4214523;28;20030;-66
2023/07/12 00:03:03;;;;;;;;;;;;;;;25.94;45.45;100820.00;4214708;28;19920;-65
2023/07/12 00:05:05;;;;;;;;;;;;;;;25.93;45.43;100821.00;4214591;28;19920;-65
2023/07/12 00:07:11;;;;;;;;;;;;;;;25.93;45.49;100833.63;4214569;28;19977;-66
2023/07/12 00:09:14;;;;;;;;;;;;;;;25.91;45.79;100827.56;4213440;28;19920;-65
2023/07/12 00:11:20;;;;;;;;;;;;;;;25.91;45.57;100830.25;4214402;28;19966;-66
2023/07/12 00:13:23;;;;;;;;;;;;;;;25.89;45.63;100825.00;4214691;28;19924;-66
2023/07/12 00:15:26;;;;;;;;;;;;;;;25.89;45.74;100835.78;4214454;28;19943;-66
2023/07/12 00:17:28;;;;;;;;;;;;;;;25.88;45.55;100835.94;4214600;28;20002;-66
2023/07/12 00:19:29;;;;;;;;;;;;;;;25.87;45.70;100839.63;4213364;28;19927;-66
2023/07/12 00:21:31;;;;;;;;;;;;;;;25.87;45.46;100845.88;4214636;28;19928;-66
2023/07/12 00:23:34;;;;;;;;;;;;;;;25.85;45.74;100842.47;4214104;28;19924;-66
2023/07/12 00:25:35;;;;;;;;;;;;;;;25.84;45.48;100841.59;4214321;28;19966;-66
2023/07/12 00:27:37;;;;;;;;;;;;;;;25.85;45.36;100842.47;4214309;28;20396;-66
2023/07/12 00:29:38;;;;;;;;;;;;;;;25.84;45.76;100841.59;4212172;28;20357;-66
2023/07/12 00:31:40;;;;;;;;;;;;;;;25.83;45.43;100842.63;4214414;28;19924;-66
2023/07/12 00:33:41;;;;;;;;;;;;;;;25.83;45.60;100839.06;4213122;28;19920;-66
2023/07/12 00:35:43;;;;;;;;;;;;;;;25.82;45.67;100837.38;4214110;28;19981;-65
2023/07/12 00:37:45;;;;;;;;;;;;;;;25.81;45.38;100836.53;4213922;28;19920;-66
2023/07/12 00:39:47;;;;;;;;;;;;;;;25.81;45.73;100833.00;4213025;28;19956;-65
2023/07/12 00:41:54;;;;;;;;;;;;;;;25.80;45.57;100823.22;4214380;28;19943;-66
2023/07/12 00:44:35;;;;;;;;;;;;;;;25.79;45.53;100830.44;4212811;28;19919;-66
2023/07/12 00:46:46;;;;;;;;;;;;;;;25.79;45.57;100838.53;4178973;28;19952;-65
2023/07/12 00:48:48;;;;;;;;;;;;;;;25.78;45.51;100842.22;4177902;28;20019;-66
2023/07/12 00:50:49;;;;;;;;;;;;;;;25.77;45.50;100840.56;4178544;28;20431;-66
2023/07/12 00:52:52;;;;;;;;;;;;;;;25.78;45.45;100846.78;4178702;28;19927;-66
2023/07/12 00:54:55;;;;;;;;;;;;;;;25.77;45.75;100847.75;4178680;28;20019;-65
2023/07/12 00:56:57;;;;;;;;;;;;;;;25.77;45.68;100850.47;4178751;28;19944;-66
2023/07/12 00:59:03;;;;;;;;;;;;;;;25.76;45.50;100852.31;4177895;28;19980;-65
2023/07/12 01:01:05;;;;;;;;;;;;;;;25.76;45.65;100854.16;4178603;28;19925;-66
2023/07/12 01:03:12;;;;;;;;;;;;;;;25.74;45.75;100850.78;4178751;28;19925;-66
2023/07/12 01:05:14;;;;;;;;;;;;;;;25.74;45.51;100854.31;4178484;28;20352;-65
2023/07/12 01:07:17;;;;;;;;;;;;;;;25.74;45.52;100854.31;4178362;28;19921;-66
2023/07/12 01:09:19;;;;;;;;;;;;;;;25.73;45.46;100846.38;4177715;28;19947;-65
2023/07/12 01:11:21;;;;;;;;;;;;;;;25.72;45.82;100840.13;4178342;28;19924;-66
2023/07/12 01:13:23;;;;;;;;;;;;;;;25.71;45.66;100849.22;4178532;28;19963;-65
2023/07/12 01:15:25;;;;;;;;;;;;;;;25.72;45.70;100847.38;4178494;28;19960;-65
2023/07/12 01:17:28;;;;;;;;;;;;;;;25.71;45.58;100856.44;4192898;28;19920;-65
2023/07/12 01:19:31;;;;;;;;;;;;;;;25.71;45.58;100859.16;4212588;28;19926;-65
2023/07/12 01:21:33;;;;;;;;;;;;;;;25.71;45.45;100864.53;4212705;28;20104;-66
2023/07/12 01:23:35;;;;;;;;;;;;;;;25.69;45.72;100864.69;4213630;28;19924;-65
2023/07/12 01:25:39;;;;;;;;;;;;;;;25.68;45.77;100869.22;4213762;28;20344;-65
2023/07/12 01:27:40;;;;;;;;;;;;;;;25.68;45.55;100865.69;4213705;28;20339;-65
2023/07/12 01:29:42;;;;;;;;;;;;;;;25.66;45.43;100873.94;4212747;28;20584;-65
2023/07/12 01:31:44;;;;;;;;;;;;;;;25.66;45.49;100871.22;4213637;28;19970;-64
2023/07/12 01:33:46;;;;;;;;;;;;;;;25.66;45.69;100876.63;4213692;28;20015;-66
2023/07/12 01:35:47;;;;;;;;;;;;;;;25.65;45.70;100865.97;4213399;28;20451;-66
2023/07/12 01:37:49;;;;;;;;;;;;;;;25.64;45.88;100877.78;4213649;28;19931;-65
2023/07/12 01:39:50;;;;;;;;;;;;;;;25.63;45.81;100871.50;4212538;28;19920;-65
2023/07/12 01:41:52;;;;;;;;;;;;;;;25.62;45.69;100868.97;4213591;28;19926;-65
2023/07/12 01:43:54;;;;;;;;;;;;;;;25.61;45.88;100868.13;4213746;28;19928;-65
2023/07/12 01:45:55;;;;;;;;;;;;;;;25.61;45.84;100875.34;4213687;28;19954;-65
2023/07/12 01:47:57;;;;;;;;;;;;;;;25.60;45.59;100877.22;4213338;28;19920;-65
2023/07/12 01:49:59;;;;;;;;;;;;;;;25.60;45.62;100879.91;4212074;28;20002;-65
2023/07/12 01:52:00;;;;;;;;;;;;;;;25.60;45.59;100887.13;4213577;28;19920;-65
2023/07/12 01:54:02;;;;;;;;;;;;;;;25.58;45.61;100886.41;4213438;28;19962;-65
2023/07/12 01:56:04;;;;;;;;;;;;;;;25.58;45.91;100884.59;4213603;28;19923;-66
2023/07/12 01:58:06;;;;;;;;;;;;;;;25.57;45.65;100873.97;4213452;28;19927;-66
2023/07/12 02:00:08;;;;;;;;;;;;;;;25.56;45.68;100878.50;4212494;28;19973;-65
2023/07/12 02:02:09;;;;;;;;;;;;;;;25.56;45.90;100877.66;4213346;28;20366;-66
2023/07/12 02:04:11;;;;;;;;;;;;;;;25.55;45.67;100886.72;4213286;28;20023;-65
2023/07/12 02:06:12;;;;;;;;;;;;;;;25.54;45.87;100888.56;4213377;28;20026;-65
2023/07/12 02:08:14;;;;;;;;;;;;;;;25.52;46.05;100894.09;4213333;28;20034;-65
2023/07/12 02:10:18;;;;;;;;;;;;;;;25.52;45.74;100888.72;4211243;28;19924;-65
2023/07/12 02:12:20;;;;;;;;;;;;;;;25.52;46.11;100885.19;4213442;28;20407;-65
2023/07/12 02:14:21;;;;;;;;;;;;;;;25.51;45.88;100895.09;4213401;28;19926;-66
2023/07/12 02:16:23;;;;;;;;;;;;;;;25.51;45.83;100891.56;4213391;28;20371;-66
2023/07/12 02:18:24;;;;;;;;;;;;;;;25.50;45.84;100898.78;4213030;28;19924;-66
2023/07/12 02:20:26;;;;;;;;;;;;;;;25.50;45.77;100906.84;4212304;28;19927;-64
2023/07/12 02:22:29;;;;;;;;;;;;;;;25.50;45.74;100911.41;4213353;28;19920;-66
2023/07/12 02:24:30;;;;;;;;;;;;;;;25.48;45.55;100911.56;4213197;28;19927;-66
2023/07/12 02:26:32;;;;;;;;;;;;;;;25.48;45.78;100910.69;4213157;28;20314;-66
2023/07/12 02:28:33;;;;;;;;;;;;;;;25.47;45.66;100909.00;4213313;28;20007;-66
2023/07/12 02:30:36;;;;;;;;;;;;;;;25.46;45.76;100905.47;4212312;28;20007;-66
2023/07/12 02:32:37;;;;;;;;;;;;;;;25.46;45.62;100910.03;4213511;28;19937;-66
2023/07/12 02:34:39;;;;;;;;;;;;;;;25.44;45.74;100910.16;4215996;28;19920;-66
2023/07/12 02:36:41;;;;;;;;;;;;;;;25.43;46.06;100908.47;4216147;28;19920;-67
2023/07/12 02:38:42;;;;;;;;;;;;;;;25.43;46.00;100911.16;4216268;28;19939;-66
2023/07/12 02:40:46;;;;;;;;;;;;;;;25.42;45.99;100922.94;4215212;28;19923;-66
2023/07/12 02:42:47;;;;;;;;;;;;;;;25.42;45.90;100922.06;4216309;28;20018;-66
2023/07/12 02:44:49;;;;;;;;;;;;;;;25.42;46.15;100919.38;4216239;28;19971;-66
2023/07/12 02:46:51;;;;;;;;;;;;;;;25.41;46.10;100917.66;4216213;28;20383;-66
2023/07/12 02:48:52;;;;;;;;;;;;;;;25.40;46.07;100924.06;4215416;28;19920;-67
2023/07/12 02:50:54;;;;;;;;;;;;;;;25.38;45.75;100924.19;4214834;28;19923;-66
2023/07/12 02:52:56;;;;;;;;;;;;;;;25.37;46.03;100922.47;4215923;28;19942;-65
2023/07/12 02:54:57;;;;;;;;;;;;;;;25.35;45.82;100933.38;4216123;28;19920;-66
2023/07/12 02:56:59;;;;;;;;;;;;;;;25.35;45.76;100928.00;4215942;28;20499;-66
2023/07/12 02:59:00;;;;;;;;;;;;;;;25.35;45.98;100936.06;4215958;28;19931;-66
2023/07/12 03:01:02;;;;;;;;;;;;;;;25.35;45.83;100935.25;4215019;28;20384;-66
2023/07/12 03:03:04;;;;;;;;;;;;;;;25.34;46.11;100928.16;4215397;28;20473;-67
2023/07/12 03:05:06;;;;;;;;;;;;;;;25.33;45.86;100929.16;4215588;28;19920;-66
2023/07/12 03:07:08;;;;;;;;;;;;;;;25.32;45.94;100935.53;4215781;28;20059;-66
2023/07/12 03:09:09;;;;;;;;;;;;;;;25.30;46.18;100932.97;4215348;28;19972;-67
2023/07/12 03:11:11;;;;;;;;;;;;;;;25.30;45.83;100937.50;4215047;28;19927;-66
2023/07/12 03:13:13;;;;;;;;;;;;;;;25.29;45.93;100936.66;4215560;28;19919;-66
2023/07/12 03:15:15;;;;;;;;;;;;;;;25.28;45.99;100936.81;4215557;28;19924;-66
2023/07/12 03:17:16;;;;;;;;;;;;;;;25.27;46.13;100935.94;4215176;28;20294;-66
2023/07/12 03:19:18;;;;;;;;;;;;;;;25.27;46.11;100932.44;4214616;28;19920;-67
2023/07/12 03:21:20;;;;;;;;;;;;;;;25.27;46.13;100940.50;4215325;28;19919;-66
2023/07/12 03:23:21;;;;;;;;;;;;;;;25.26;45.97;100946.88;4215523;28;19919;-66
2023/07/12 03:25:23;;;;;;;;;;;;;;;25.25;45.90;100948.72;4215265;28;19974;-66
2023/07/12 03:27:25;;;;;;;;;;;;;;;25.24;46.14;100952.41;4215434;28;19977;-66
2023/07/12 03:29:27;;;;;;;;;;;;;;;25.23;46.22;100950.72;4214526;28;20310;-66
2023/07/12 03:31:29;;;;;;;;;;;;;;;25.24;46.01;100946.16;4214860;28;19927;-66
2023/07/12 03:33:31;;;;;;;;;;;;;;;25.22;45.89;100948.16;4215289;28;19926;-66
2023/07/12 03:35:33;;;;;;;;;;;;;;;25.20;46.10;100946.47;4214060;28;20315;-66
2023/07/12 03:37:34;;;;;;;;;;;;;;;25.19;45.93;100952.00;4215182;28;20275;-67
2023/07/12 03:39:36;;;;;;;;;;;;;;;25.18;46.13;100945.75;4214312;28;19986;-67
2023/07/12 03:41:37;;;;;;;;;;;;;;;25.18;46.07;100953.81;4213817;28;19949;-66
2023/07/12 03:43:39;;;;;;;;;;;;;;;25.16;45.96;100945.03;4214904;28;19920;-66
2023/07/12 03:45:42;;;;;;;;;;;;;;;25.16;46.13;100954.97;4214766;28;19924;-66
2023/07/12 03:47:44;;;;;;;;;;;;;;;25.15;46.19;100950.56;4215134;28;19927;-67
2023/07/12 03:49:45;;;;;;;;;;;;;;;25.15;45.87;100954.13;4214287;28;20440;-66
2023/07/12 03:51:47;;;;;;;;;;;;;;;25.14;45.95;100959.63;4214886;28;19920;-66
2023/07/12 03:53:48;;;;;;;;;;;;;;;25.13;46.06;100952.56;4214801;28;19924;-67
2023/07/12 03:55:50;;;;;;;;;;;;;;;25.13;45.95;100963.31;4214936;28;19920;-66
2023/07/12 03:57:52;;;;;;;;;;;;;;;25.11;45.91;100957.25;4214900;28;19951;-66
2023/07/12 03:59:53;;;;;;;;;;;;;;;25.11;46.27;100968.84;4213792;28;19920;-67
2023/07/12 04:01:55;;;;;;;;;;;;;;;25.10;46.01;100969.00;4215035;28;20006;-66
2023/07/12 04:03:56;;;;;;;;;;;;;;;25.09;46.05;100978.91;4214603;28;19951;-66
2023/07/12 04:05:58;;;;;;;;;;;;;;;25.09;46.15;100976.22;4214902;28;19927;-65
2023/07/12 04:08:00;;;;;;;;;;;;;;;25.07;45.82;100977.34;4214494;28;19920;-66
2023/07/12 04:10:01;;;;;;;;;;;;;;;25.07;46.06;100971.97;4213438;28;19920;-65
2023/07/12 04:12:03;;;;;;;;;;;;;;;25.07;45.97;100974.66;4214365;28;19920;-66
2023/07/12 04:14:04;;;;;;;;;;;;;;;25.05;46.10;100977.50;4214702;28;20295;-67
2023/07/12 04:16:08;;;;;;;;;;;;;;;25.04;45.90;100978.50;4214277;28;19927;-66
2023/07/12 04:18:09;;;;;;;;;;;;;;;25.02;45.90;100981.34;4214751;28;19942;-66
2023/07/12 04:20:12;;;;;;;;;;;;;;;25.03;46.11;100984.88;4213653;28;19966;-66
2023/07/12 04:22:13;;;;;;;;;;;;;;;25.02;46.11;100992.09;4214425;28;19920;-66
2023/07/12 04:24:15;;;;;;;;;;;;;;;25.01;45.90;100987.72;4214526;28;19969;-66
2023/07/12 04:26:20;;;;;;;;;;;;;;;25.00;45.83;100991.38;4214414;28;19958;-67
2023/07/12 04:28:22;;;;;;;;;;;;;;;24.99;46.09;100989.69;4214457;28;19924;-66
2023/07/12 04:30:23;;;;;;;;;;;;;;;24.99;46.00;100991.53;4212863;28;19920;-66
2023/07/12 04:32:25;;;;;;;;;;;;;;;24.98;46.01;100992.53;4214437;28;19924;-66
2023/07/12 04:34:28;;;;;;;;;;;;;;;24.98;46.07;100998.78;4214524;28;20014;-67
2023/07/12 04:36:39;;;;;;;;;;;;;;;24.97;46.08;100999.75;4214116;28;19920;-66
2023/07/12 04:38:41;;;;;;;;;;;;;;;24.96;45.76;101002.56;4214189;28;19926;-66
2023/07/12 04:40:43;;;;;;;;;;;;;;;24.96;45.86;101003.44;4212063;28;20034;-66
2023/07/12 04:42:45;;;;;;;;;;;;;;;24.95;45.79;101012.50;4214227;28;19920;-66
2023/07/12 04:44:47;;;;;;;;;;;;;;;24.95;45.80;101023.25;4213922;28;19920;-66
2023/07/12 04:46:48;;;;;;;;;;;;;;;24.94;45.75;101016.16;4214266;28;19966;-66
2023/07/12 04:48:50;;;;;;;;;;;;;;;24.93;46.05;101021.69;4214055;28;19931;-66
2023/07/12 04:50:52;;;;;;;;;;;;;;;24.92;45.83;101015.44;4211848;28;19955;-67
2023/07/12 04:52:54;;;;;;;;;;;;;;;24.93;45.96;101027.09;4214313;28;19920;-66
2023/07/12 04:54:56;;;;;;;;;;;;;;;24.92;45.73;101028.91;4213950;28;19924;-66
2023/07/12 04:56:57;;;;;;;;;;;;;;;24.91;45.81;101029.94;4213512;28;19970;-66
2023/07/12 04:58:59;;;;;;;;;;;;;;;24.90;46.01;101016.59;4213558;28;20383;-66
2023/07/12 05:01:02;;;;;;;;;;;;;;;24.89;45.69;101026.50;4212834;28;20387;-66
2023/07/12 05:03:03;;;;;;;;;;;;;;;24.88;45.91;101036.41;4214170;28;20014;-66
2023/07/12 05:05:05;;;;;;;;;;;;;;;24.86;45.63;101032.16;4214007;28;20386;-66
2023/07/12 05:07:09;;;;;;;;;;;;;;;24.86;45.59;101040.22;4213736;28;19927;-66
2023/07/12 05:09:11;;;;;;;;;;;;;;;24.85;45.66;101038.56;4214029;28;19924;-66
2023/07/12 05:11:12;;;;;;;;;;;;;;;24.84;45.98;101037.69;4212638;28;20378;-66
2023/07/12 05:13:14;;;;;;;;;;;;;;;24.84;45.67;101040.38;4213489;28;19962;-66
2023/07/12 05:15:16;;;;;;;;;;;;;;;24.84;45.96;101039.53;4213590;28;19924;-66
2023/07/12 05:17:19;;;;;;;;;;;;;;;24.84;45.82;101039.53;4213552;28;19920;-66
2023/07/12 05:19:20;;;;;;;;;;;;;;;24.83;45.55;101049.44;4213621;28;19927;-66
2023/07/12 05:21:24;;;;;;;;;;;;;;;24.82;45.97;101053.13;4212692;28;19999;-66
2023/07/12 05:23:25;;;;;;;;;;;;;;;24.83;45.78;101053.97;4213643;28;19931;-66
2023/07/12 05:25:27;;;;;;;;;;;;;;;24.82;45.85;101058.50;4213626;28;19927;-66
2023/07/12 05:27:29;;;;;;;;;;;;;;;24.82;45.69;101063.88;4213456;28;19920;-66
2023/07/12 05:29:30;;;;;;;;;;;;;;;24.82;45.80;101065.72;4213755;28;19943;-67
2023/07/12 05:31:32;;;;;;;;;;;;;;;24.80;45.65;101062.31;4212868;28;19942;-66
2023/07/12 05:33:33;;;;;;;;;;;;;;;24.79;45.60;101056.09;4213767;28;20466;-66
2023/07/12 05:35:35;;;;;;;;;;;;;;;24.79;45.89;101066.00;4213651;28;20289;-66
2023/07/12 05:37:37;;;;;;;;;;;;;;;24.78;45.60;101073.22;4213756;28;20378;-66
2023/07/12 05:39:40;;;;;;;;;;;;;;;24.78;45.77;101069.69;4213244;28;20259;-68
2023/07/12 05:41:42;;;;;;;;;;;;;;;24.77;45.46;101071.50;4212920;28;19928;-66
2023/07/12 05:43:43;;;;;;;;;;;;;;;24.76;45.49;101069.81;4213549;28;20030;-66
2023/07/12 05:45:45;;;;;;;;;;;;;;;24.76;45.68;101079.72;4213814;28;20139;-66
2023/07/12 05:47:47;;;;;;;;;;;;;;;24.74;45.47;101082.56;4213570;28;20421;-65
2023/07/12 05:49:49;;;;;;;;;;;;;;;24.75;45.73;101070.78;4212596;28;19920;-66
2023/07/12 05:51:51;;;;;;;;;;;;;;;24.74;45.42;101087.09;4213367;28;19919;-66
2023/07/12 05:53:53;;;;;;;;;;;;;;;24.74;45.62;101089.78;4213380;28;19920;-66
2023/07/12 05:55:55;;;;;;;;;;;;;;;24.73;45.59;101091.63;4213376;28;19953;-66
2023/07/12 05:57:57;;;;;;;;;;;;;;;24.72;45.62;101087.22;4213390;28;19920;-66
2023/07/12 06:00:01;;;;;;;;;;;;;;;24.72;45.31;101093.44;4212653;28;19953;-66
2023/07/12 06:02:03;;;;;;;;;;;;;;;24.72;45.50;101106.06;4213310;28;19963;-66
2023/07/12 06:04:04;;;;;;;;;;;;;;;24.72;45.62;101106.06;4213618;28;20268;-66
2023/07/12 06:06:07;;;;;;;;;;;;;;;24.70;45.61;101098.13;4213228;28;20309;-66
2023/07/12 06:08:08;;;;;;;;;;;;;;;24.71;45.31;101096.28;4216242;28;19998;-67
2023/07/12 06:10:10;;;;;;;;;;;;;;;24.71;45.63;101096.28;4215897;28;19927;-67
2023/07/12 06:12:12;;;;;;;;;;;;;;;24.70;45.61;101100.81;4216002;28;19920;-66
2023/07/12 06:14:13;;;;;;;;;;;;;;;24.69;45.48;101096.44;4216372;28;19930;-66
2023/07/12 06:16:15;;;;;;;;;;;;;;;24.69;45.50;101098.25;4216517;28;19956;-66
2023/07/12 06:18:17;;;;;;;;;;;;;;;24.69;45.50;101106.31;4216246;28;19965;-66
2023/07/12 06:20:19;;;;;;;;;;;;;;;24.69;45.30;101106.31;4215475;28;19928;-66
2023/07/12 06:22:21;;;;;;;;;;;;;;;24.69;45.10;101111.69;4216405;28;20302;-67
2023/07/12 06:24:23;;;;;;;;;;;;;;;24.69;45.31;101112.56;4216567;28;20369;-67
2023/07/12 06:26:25;;;;;;;;;;;;;;;24.69;45.40;101112.56;4214615;28;19928;-66
2023/07/12 06:28:27;;;;;;;;;;;;;;;24.67;45.17;101111.84;4216415;28;19920;-67
2023/07/12 06:30:28;;;;;;;;;;;;;;;24.67;45.15;101108.31;4215218;28;19920;-66
2023/07/12 06:32:30;;;;;;;;;;;;;;;24.56;45.26;101088.56;4216207;28;20413;-67
2023/07/12 06:34:32;;;;;;;;;;;;;;;24.66;45.32;101110.13;4216285;28;19991;-66
2023/07/12 06:36:33;;;;;;;;;;;;;;;24.65;45.13;101111.09;4216345;28;19920;-66
2023/07/12 06:38:35;;;;;;;;;;;;;;;24.66;45.08;101114.69;4216245;28;19967;-66
2023/07/12 06:40:37;;;;;;;;;;;;;;;24.65;45.05;101123.69;4214837;28;19924;-66
2023/07/12 06:42:39;;;;;;;;;;;;;;;24.65;45.14;101129.91;4216179;28;19950;-66
2023/07/12 06:44:40;;;;;;;;;;;;;;;24.65;45.33;101131.78;4215880;28;19926;-66
2023/07/12 06:46:42;;;;;;;;;;;;;;;24.64;45.11;101127.38;4216124;28;19920;-66
2023/07/12 06:48:43;;;;;;;;;;;;;;;24.63;44.96;101129.22;4215996;28;19920;-66
2023/07/12 06:50:46;;;;;;;;;;;;;;;24.63;44.94;101131.91;4214981;28;19919;-67
2023/07/12 06:52:47;;;;;;;;;;;;;;;24.64;45.03;101130.94;4216219;28;19920;-66
2023/07/12 06:54:49;;;;;;;;;;;;;;;24.63;44.94;101131.03;4215689;28;20413;-66
2023/07/12 06:56:50;;;;;;;;;;;;;;;24.62;45.05;101130.19;4216100;28;20394;-66
2023/07/12 06:58:52;;;;;;;;;;;;;;;24.62;45.05;101135.59;4215849;28;19920;-66
2023/07/12 07:00:53;;;;;;;;;;;;;;;24.61;45.05;101141.09;4214824;28;19920;-67
2023/07/12 07:02:55;;;;;;;;;;;;;;;24.61;44.85;101141.94;4215817;28;19998;-66
2023/07/12 07:04:56;;;;;;;;;;;;;;;24.60;45.11;101145.63;4215855;28;19923;-66
2023/07/12 07:06:58;;;;;;;;;;;;;;;24.61;44.77;101138.41;4215744;28;19978;-66
2023/07/12 07:08:59;;;;;;;;;;;;;;;24.62;44.82;101145.47;4247916;27;19919;-67
2023/07/12 07:11:01;;;;;;;;;;;;;;;24.61;44.87;101141.94;4214657;28;19924;-66
2023/07/12 07:13:03;;;;;;;;;;;;;;;24.62;45.19;101150.84;4215861;28;20279;-66
2023/07/12 07:15:05;;;;;;;;;;;;;;;24.63;44.81;101145.34;4215576;28;20093;-66
2023/07/12 07:17:07;;;;;;;;;;;;;;;24.65;44.81;101145.22;4215685;28;19931;-66
2023/07/12 07:19:09;;;;;;;;;;;;;;;24.56;44.83;101128.91;4214998;28;20394;-66
2023/07/12 07:21:10;;;;;;;;;;;;;;;24.63;44.69;101142.66;4214510;28;19920;-66
2023/07/12 07:23:12;;;;;;;;;;;;;;;24.63;44.87;101141.78;4215217;28;19955;-66
2023/07/12 07:25:14;;;;;;;;;;;;;;;24.63;44.62;101148.03;4215456;28;20299;-66
2023/07/12 07:27:22;;;;;;;;;;;;;;;24.63;44.78;101145.34;4215456;28;20086;-66
2023/07/12 07:29:24;;;;;;;;;;;;;;;24.63;45.00;101157.94;4215154;28;20011;-66
2023/07/12 07:31:25;;;;;;;;;;;;;;;24.64;44.68;101156.94;4214203;28;19955;-66
2023/07/12 07:33:27;;;;;;;;;;;;;;;24.61;44.74;101155.41;4215101;28;19977;-66
2023/07/12 07:35:29;;;;;;;;;;;;;;;24.61;44.63;101155.41;4215253;28;19928;-66
2023/07/12 07:37:30;;;;;;;;;;;;;;;24.64;44.60;101155.13;4214948;28;20368;-67
2023/07/12 07:39:32;;;;;;;;;;;;;;;24.62;44.60;101156.22;4215278;28;19970;-66
2023/07/12 07:41:33;;;;;;;;;;;;;;;24.60;44.98;101159.06;4214211;28;20018;-66
2023/07/12 07:43:36;;;;;;;;;;;;;;;24.61;45.07;101151.88;4214984;28;19920;-67
2023/07/12 07:45:38;;;;;;;;;;;;;;;24.59;44.66;101151.97;4215001;28;19924;-66
2023/07/12 07:47:40;;;;;;;;;;;;;;;24.61;44.76;101157.25;4215098;28;19920;-66
2023/07/12 07:49:41;;;;;;;;;;;;;;;24.62;44.87;101153.53;4214854;28;20487;-66
2023/07/12 07:51:43;;;;;;;;;;;;;;;24.63;44.51;101145.34;4214151;28;19920;-66
2023/07/12 07:53:44;;;;;;;;;;;;;;;24.65;44.54;101150.59;4214459;28;19965;-66
2023/07/12 07:55:46;;;;;;;;;;;;;;;24.65;44.75;101151.44;4214880;28;19920;-67
2023/07/12 07:57:48;;;;;;;;;;;;;;;24.67;44.37;101152.19;4214915;28;19920;-66
2023/07/12 07:59:49;;;;;;;;;;;;;;;24.66;44.44;101146.94;4214830;28;20409;-67
2023/07/12 08:01:51;;;;;;;;;;;;;;;24.65;44.53;101158.66;4213960;28;20353;-66
2023/07/12 08:03:57;;;;;;;;;;;;;;;24.69;44.35;101160.09;4214665;28;19931;-65
2023/07/12 08:06:00;;;;;;;;;;;;;;;24.70;44.30;101159.13;4214923;28;20435;-66
2023/07/12 08:08:04;;;;;;;;;;;;;;;24.71;44.27;101164.38;4213781;28;19946;-65
2023/07/12 08:10:06;;;;;;;;;;;;;;;24.71;44.67;101156.28;4211972;28;19920;-66
2023/07/12 08:12:08;;;;;;;;;;;;;;;24.73;44.21;101161.56;4213733;28;20387;-65
2023/07/12 08:14:09;;;;;;;;;;;;;;;24.73;44.03;101158.88;4214541;28;19931;-62
2023/07/12 08:16:11;;;;;;;;;;;;;;;24.75;44.15;101167.63;4214559;28;20006;-63
2023/07/12 08:18:13;;;;;;;;;;;;;;;24.76;44.10;101176.56;4214425;28;20002;-62
2023/07/12 08:20:14;;;;;;;;;;;;;;;24.77;44.08;101170.22;4213510;28;19920;-64
2023/07/12 08:22:19;;;;;;;;;;;;;;;24.77;44.18;101175.59;4213513;28;20015;-63
2023/07/12 08:24:21;;;;;;;;;;;;;;;24.79;44.30;101173.59;4214014;28;19978;-63
2023/07/12 08:26:27;;;;;;;;;;;;;;;24.79;44.28;101169.06;4214169;28;20421;-63
2023/07/12 08:28:29;;;;;;;;;;;;;;;24.90;44.56;101165.44;4209613;28;20390;-59
2023/07/12 08:30:30;;;;;;;;;;;;;;;25.06;45.68;101164.06;4216470;28;20306;-58
2023/07/12 08:32:33;;;;;;;;;;;;;;;25.07;45.12;101163.91;4213291;28;19926;-57
2023/07/12 08:34:35;;;;;;;;;;;;;;;25.12;44.74;101172.41;4215479;28;19955;-57
2023/07/12 08:36:36;;;;;;;;;;;;;;;25.18;44.41;101162.94;4213766;28;19920;-57
2023/07/12 08:38:38;;;;;;;;;;;;;;;25.25;44.43;101163.22;4217044;28;19924;-58
2023/07/12 08:40:46;;;;;;;;;;;;;;;25.26;44.73;101165.75;4212236;28;19964;-59
2023/07/12 08:42:53;;;;;;;;;;;;;;;25.26;44.04;101171.16;4211083;28;19974;-59
2023/07/12 08:44:57;;;;;;;;;;;;;;;25.27;43.97;101166.63;4212620;28;19982;-60
2023/07/12 08:46:59;;;;;;;;;;;;;;;25.35;44.09;101167.63;4214230;28;19928;-59
2023/07/12 08:49:01;;;;;;;;;;;;;;;25.36;43.71;101168.50;4212934;28;19928;-59
2023/07/12 08:51:11;;;;;;;;;;;;;;;25.36;43.64;101168.50;4211380;28;19953;-58
2023/07/12 08:53:23;;;;;;;;;;;;;;;25.42;43.62;101167.09;4211498;28;20425;-58
2023/07/12 08:55:25;;;;;;;;;;;;;;;25.50;42.80;101172.63;4214362;28;20352;-58
2023/07/12 08:57:28;;;;;;;;;;;;;;;25.50;42.44;101168.06;4213362;28;20371;-58
2023/07/12 08:59:31;;;;;;;;;;;;;;;25.54;42.39;101171.34;4209955;28;19924;-58
2023/07/12 09:01:47;;;;;;;;;;;;;;;25.61;42.75;101172.47;4211358;28;19920;-58
2023/07/12 09:03:49;;;;;;;;;;;;;;;25.64;42.42;101177.59;4210378;28;19928;-56
2023/07/12 09:05:51;;;;;;;;;;;;;;;25.65;41.86;101176.59;4212569;28;20015;-60
2023/07/12 09:08:08;;;;;;;;;;;;;;;25.67;41.83;101177.28;4213044;28;19943;-64
2023/07/12 09:10:10;;;;;;;;;;;;;;;25.77;41.65;101180.00;4211628;28;19920;-63
2023/07/12 09:12:21;;;;;;;;;;;;;;;25.72;41.95;101190.34;4211770;28;20038;-64
2023/07/12 09:14:24;;;;;;;;;;;;;;;25.78;42.79;101191.63;4210431;28;19924;-62
2023/07/12 09:16:35;;;;;;;;;;;;;;;25.90;41.79;101182.38;4210563;28;19978;-66
2023/07/12 09:18:37;;;;;;;;;;;;;;;25.90;41.61;101193.16;4211824;28;19928;-67
2023/07/12 09:20:40;;;;;;;;;;;;;;;25.95;41.39;101193.56;4210841;28;19931;-64
2023/07/12 09:22:43;;;;;;;;;;;;;;;25.96;41.14;101187.19;4212591;28;20451;-64
2023/07/12 09:24:49;;;;;;;;;;;;;;;25.97;40.98;101188.06;4194264;28;19920;-63
2023/07/12 09:27:00;;;;;;;;;;;;;;;25.97;40.75;101183.50;4210330;28;20407;-65
2023/07/12 09:29:05;;;;;;;;;;;;;;;26.06;41.36;101183.66;4209453;28;19930;-62
2023/07/12 09:31:15;;;;;;;;;;;;;;;26.07;41.00;101186.22;4208811;28;19931;-62
2023/07/12 09:33:25;;;;;;;;;;;;;;;26.08;40.77;101176.31;4212377;28;19920;-62
2023/07/12 09:35:40;;;;;;;;;;;;;;;26.06;40.75;101186.34;4209164;28;19975;-65
2023/07/12 09:37:42;;;;;;;;;;;;;;;26.19;40.05;101189.59;4212089;28;19928;-62
2023/07/12 09:39:57;;;;;;;;;;;;;;;26.23;40.67;101193.69;4211860;28;19960;-64
2023/07/12 09:42:01;;;;;;;;;;;;;;;26.30;41.36;101194.81;4210130;28;19928;-63
2023/07/12 09:44:02;;;;;;;;;;;;;;;26.36;40.00;101192.56;4213611;28;19970;-64
2023/07/12 09:46:27;;;;;;;;;;;;;;;26.38;40.53;101193.25;4215665;28;19920;-66
2023/07/12 09:48:41;;;;;;;;;;;;;;;26.44;39.88;101192.66;4214936;28;19924;-68
2023/07/12 09:50:49;;;;;;;;;;;;;;;26.47;40.15;101200.47;4212226;28;19984;-65
2023/07/12 09:52:58;;;;;;;;;;;;;;;26.51;40.03;101191.06;4215888;28;19926;-68
2023/07/12 09:55:09;;;;;;;;;;;;;;;26.53;39.93;101190.94;4194900;28;20010;-68
2023/07/12 09:57:19;;;;;;;;;;;;;;;26.53;39.41;101199.88;4215521;28;20373;-67
2023/07/12 09:59:41;;;;;;;;;;;;;;;26.56;39.47;101190.63;4215794;28;19924;-67
2023/07/12 10:01:51;;;;;;;;;;;;;;;26.54;39.52;101193.47;4211661;28;19924;-66
2023/07/12 10:03:55;;;;;;;;;;;;;;;26.57;39.77;101192.31;4215920;28;19920;-66
2023/07/12 10:06:03;;;;;;;;;;;;;;;26.65;39.79;101188.88;4215960;28;19931;-68
2023/07/12 10:08:08;;;;;;;;;;;;;;;26.69;38.87;101188.44;4215931;28;19920;-65
2023/07/12 10:10:19;;;;;;;;;;;;;;;26.77;39.01;101199.38;4202095;28;19920;-66
2023/07/12 10:12:23;;;;;;;;;;;;;;;26.78;38.92;101195.69;4214309;28;19924;-69
2023/07/12 10:14:30;;;;;;;;;;;;;;;26.82;38.54;101192.66;4205247;28;19920;-70
2023/07/12 10:16:36;;;;;;;;;;;;;;;26.82;38.57;101193.53;4219063;28;20299;-66
2023/07/12 10:18:38;;;;;;;;;;;;;;;26.81;38.43;101202.63;4216413;28;19942;-69
2023/07/12 10:20:40;;;;;;;;;;;;;;;26.76;38.06;101200.38;4214560;28;19920;-69
2023/07/12 10:22:43;;;;;;;;;;;;;;;26.75;37.97;101193.25;4215873;28;19920;-69
2023/07/12 10:24:48;;;;;;;;;;;;;;;26.73;37.84;101197.06;4216380;28;20301;-69
2023/07/12 10:26:50;;;;;;;;;;;;;;;26.61;37.12;101186.50;4216284;28;19928;-68
2023/07/12 10:28:52;;;;;;;;;;;;;;;26.46;36.30;101190.66;4215908;28;19927;-69
2023/07/12 10:30:55;;;;;;;;;;;;;;;26.35;36.30;101178.19;4215294;28;20367;-69